sensor_id;sensor_type;location;lat;lon;timestamp;temperature;humidity
30381;DHT22;17169;50.966;11.038;2024-01-25T00:02:58;8.50;99.90
30381;DHT22;17169;50.966;11.038;2024-01-25T00:06:01;8.50;99.90
30381;DHT22;17169;50.966;11.038;2024-01-25T00:09:03;8.60;99.90
30381;DHT22;17169;50.966;11.038;2024-01-25T00:12:06;8.60;99.90
30381;DHT22;17169;50.966;11.038;2024-01-25T00:15:09;8.60;99.90
30381;DHT22;17169;50.966;11.038;2024-01-25T00:18:12;8.60;99.90
30381;DHT22;17169;50.966;11.038;2024-01-25T00:21:15;8.50;99.90
30381;DHT22;17169;50.966;11.038;2024-01-25T00:24:18;8.50;99.90
30381;DHT22;17169;50.966;11.038;2024-01-25T00:27:20;8.50;99.90
30381;DHT22;17169;50.966;11.038;2024-01-25T00:30:22;8.40;99.90
30381;DHT22;17169;50.966;11.038;2024-01-25T00:33:26;8.40;99.90
30381;DHT22;17169;50.966;11.038;2024-01-25T00:36:29;8.30;99.90
30381;DHT22;17169;50.966;11.038;2024-01-25T00:39:32;8.30;99.90
30381;DHT22;17169;50.966;11.038;2024-01-25T00:42:39;8.20;99.90
30381;DHT22;17169;50.966;11.038;2024-01-25T00:45:43;8.20;99.90
30381;DHT22;17169;50.966;11.038;2024-01-25T00:48:48;8.10;99.90
30381;DHT22;17169;50.966;11.038;2024-01-25T00:51:54;8.10;99.90
30381;DHT22;17169;50.966;11.038;2024-01-25T00:55:00;8.00;99.90
30381;DHT22;17169;50.966;11.038;2024-01-25T00:58:03;8.00;99.90
30381;DHT22;17169;50.966;11.038;2024-01-25T01:01:06;8.00;99.90
30381;DHT22;17169;50.966;11.038;2024-01-25T01:04:10;8.00;99.90
30381;DHT22;17169;50.966;11.038;2024-01-25T01:07:13;7.90;99.90
30381;DHT22;17169;50.966;11.038;2024-01-25T01:10:16;7.90;99.90
30381;DHT22;17169;50.966;11.038;2024-01-25T01:13:18;7.90;99.90
30381;DHT22;17169;50.966;11.038;2024-01-25T01:16:21;7.90;99.90
30381;DHT22;17169;50.966;11.038;2024-01-25T01:19:24;7.90;99.90
30381;DHT22;17169;50.966;11.038;2024-01-25T01:22:27;8.00;99.90
30381;DHT22;17169;50.966;11.038;2024-01-25T01:25:29;7.90;99.90
30381;DHT22;17169;50.966;11.038;2024-01-25T01:28:31;7.90;99.90
30381;DHT22;17169;50.966;11.038;2024-01-25T01:31:34;8.00;99.90
30381;DHT22;17169;50.966;11.038;2024-01-25T01:34:38;7.90;99.90
30381;DHT22;17169;50.966;11.038;2024-01-25T01:37:40;7.90;99.90
30381;DHT22;17169;50.966;11.038;2024-01-25T01:40:44;7.90;99.90
30381;DHT22;17169;50.966;11.038;2024-01-25T01:43:47;7.90;99.90
30381;DHT22;17169;50.966;11.038;2024-01-25T01:46:49;7.90;99.90
30381;DHT22;17169;50.966;11.038;2024-01-25T01:49:53;7.90;99.90
30381;DHT22;17169;50.966;11.038;2024-01-25T01:52:56;7.90;99.90
30381;DHT22;17169;50.966;11.038;2024-01-25T01:55:58;7.90;99.90
30381;DHT22;17169;50.966;11.038;2024-01-25T01:59:02;8.00;99.90
30381;DHT22;17169;50.966;11.038;2024-01-25T02:02:04;8.00;99.90
30381;DHT22;17169;50.966;11.038;2024-01-25T02:05:09;8.00;99.90
30381;DHT22;17169;50.966;11.038;2024-01-25T02:08:12;8.00;99.90
30381;DHT22;17169;50.966;11.038;2024-01-25T02:11:15;8.10;99.90
30381;DHT22;17169;50.966;11.038;2024-01-25T02:14:17;8.10;99.90
30381;DHT22;17169;50.966;11.038;2024-01-25T02:17:20;8.10;99.90
30381;DHT22;17169;50.966;11.038;2024-01-25T02:20:25;8.20;99.90
30381;DHT22;17169;50.966;11.038;2024-01-25T02:23:28;8.20;99.90
30381;DHT22;17169;50.966;11.038;2024-01-25T02:26:31;8.20;99.90
30381;DHT22;17169;50.966;11.038;2024-01-25T02:29:33;8.20;99.90
30381;DHT22;17169;50.966;11.038;2024-01-25T02:32:35;8.20;99.90
30381;DHT22;17169;50.966;11.038;2024-01-25T02:35:38;8.20;99.90
30381;DHT22;17169;50.966;11.038;2024-01-25T02:38:41;8.20;99.90
30381;DHT22;17169;50.966;11.038;2024-01-25T02:41:44;8.10;99.90
30381;DHT22;17169;50.966;11.038;2024-01-25T02:44:46;8.10;99.90
30381;DHT22;17169;50.966;11.038;2024-01-25T02:47:50;8.10;99.90
30381;DHT22;17169;50.966;11.038;2024-01-25T02:50:52;8.10;99.90
30381;DHT22;17169;50.966;11.038;2024-01-25T02:53:56;8.00;99.90
30381;DHT22;17169;50.966;11.038;2024-01-25T02:56:58;7.90;99.90
30381;DHT22;17169;50.966;11.038;2024-01-25T03:00:01;7.90;99.90
30381;DHT22;17169;50.966;11.038;2024-01-25T03:03:04;7.80;99.90
30381;DHT22;17169;50.966;11.038;2024-01-25T03:06:06;7.80;99.90
30381;DHT22;17169;50.966;11.038;2024-01-25T03:09:11;7.80;99.90
30381;DHT22;17169;50.966;11.038;2024-01-25T03:12:14;7.80;99.90
30381;DHT22;17169;50.966;11.038;2024-01-25T03:15:16;7.80;99.90
30381;DHT22;17169;50.966;11.038;2024-01-25T03:18:18;7.80;99.90
30381;DHT22;17169;50.966;11.038;2024-01-25T03:21:21;7.80;99.90
30381;DHT22;17169;50.966;11.038;2024-01-25T03:24:25;7.80;99.90
30381;DHT22;17169;50.966;11.038;2024-01-25T03:27:27;7.80;99.90
30381;DHT22;17169;50.966;11.038;2024-01-25T03:30:29;7.80;99.90
30381;DHT22;17169;50.966;11.038;2024-01-25T03:33:32;7.80;99.90
30381;DHT22;17169;50.966;11.038;2024-01-25T03:36:34;7.80;99.90
30381;DHT22;17169;50.966;11.038;2024-01-25T03:39:38;7.80;99.90
30381;DHT22;17169;50.966;11.038;2024-01-25T03:42:41;7.80;99.90
30381;DHT22;17169;50.966;11.038;2024-01-25T03:45:43;7.80;99.90
30381;DHT22;17169;50.966;11.038;2024-01-25T03:48:45;7.80;99.90
30381;DHT22;17169;50.966;11.038;2024-01-25T03:51:48;7.80;99.90
30381;DHT22;17169;50.966;11.038;2024-01-25T03:54:52;7.80;99.90
30381;DHT22;17169;50.966;11.038;2024-01-25T03:57:54;7.80;99.90
30381;DHT22;17169;50.966;11.038;2024-01-25T04:00:56;7.80;99.90
30381;DHT22;17169;50.966;11.038;2024-01-25T04:03:59;7.80;99.90
30381;DHT22;17169;50.966;11.038;2024-01-25T04:07:01;7.80;99.90
30381;DHT22;17169;50.966;11.038;2024-01-25T04:10:06;7.80;99.90
30381;DHT22;17169;50.966;11.038;2024-01-25T04:13:08;7.80;99.90
30381;DHT22;17169;50.966;11.038;2024-01-25T04:16:14;7.80;99.90
30381;DHT22;17169;50.966;11.038;2024-01-25T04:19:16;7.80;99.90
30381;DHT22;17169;50.966;11.038;2024-01-25T04:22:19;7.80;99.90
30381;DHT22;17169;50.966;11.038;2024-01-25T04:25:22;7.80;99.90
30381;DHT22;17169;50.966;11.038;2024-01-25T04:28:25;7.70;99.90
30381;DHT22;17169;50.966;11.038;2024-01-25T04:31:27;7.70;99.90
30381;DHT22;17169;50.966;11.038;2024-01-25T04:34:29;7.70;99.90
30381;DHT22;17169;50.966;11.038;2024-01-25T04:37:32;7.80;99.90
30381;DHT22;17169;50.966;11.038;2024-01-25T04:40:36;7.70;99.90
30381;DHT22;17169;50.966;11.038;2024-01-25T04:43:38;7.70;99.90
30381;DHT22;17169;50.966;11.038;2024-01-25T04:46:41;7.60;99.90
30381;DHT22;17169;50.966;11.038;2024-01-25T04:49:44;7.50;99.90
30381;DHT22;17169;50.966;11.038;2024-01-25T04:52:46;7.50;99.90
30381;DHT22;17169;50.966;11.038;2024-01-25T04:55:50;7.40;99.90
30381;DHT22;17169;50.966;11.038;2024-01-25T04:58:52;7.40;99.90
30381;DHT22;17169;50.966;11.038;2024-01-25T05:01:55;7.40;99.90
30381;DHT22;17169;50.966;11.038;2024-01-25T05:04:59;7.30;99.90
30381;DHT22;17169;50.966;11.038;2024-01-25T05:08:01;7.30;99.90
30381;DHT22;17169;50.966;11.038;2024-01-25T05:11:05;7.40;99.90
30381;DHT22;17169;50.966;11.038;2024-01-25T05:14:07;7.40;99.90
30381;DHT22;17169;50.966;11.038;2024-01-25T05:17:09;7.40;99.90
30381;DHT22;17169;50.966;11.038;2024-01-25T05:20:12;7.40;99.90
30381;DHT22;17169;50.966;11.038;2024-01-25T05:23:16;7.50;99.90
30381;DHT22;17169;50.966;11.038;2024-01-25T05:26:20;7.50;99.90
30381;DHT22;17169;50.966;11.038;2024-01-25T05:29:22;7.50;99.90
30381;DHT22;17169;50.966;11.038;2024-01-25T05:32:24;7.50;99.90
30381;DHT22;17169;50.966;11.038;2024-01-25T05:35:27;7.60;99.90
30381;DHT22;17169;50.966;11.038;2024-01-25T05:38:30;7.60;99.90
30381;DHT22;17169;50.966;11.038;2024-01-25T05:41:34;7.50;99.90
30381;DHT22;17169;50.966;11.038;2024-01-25T05:44:36;7.60;99.90
30381;DHT22;17169;50.966;11.038;2024-01-25T05:47:39;7.60;99.90
30381;DHT22;17169;50.966;11.038;2024-01-25T05:50:41;7.60;99.90
30381;DHT22;17169;50.966;11.038;2024-01-25T05:53:44;7.60;99.90
30381;DHT22;17169;50.966;11.038;2024-01-25T05:56:47;7.60;99.90
30381;DHT22;17169;50.966;11.038;2024-01-25T05:59:50;7.60;99.90
30381;DHT22;17169;50.966;11.038;2024-01-25T06:02:52;7.60;99.90
30381;DHT22;17169;50.966;11.038;2024-01-25T06:05:54;7.60;99.90
30381;DHT22;17169;50.966;11.038;2024-01-25T06:08:57;7.60;99.90
30381;DHT22;17169;50.966;11.038;2024-01-25T06:12:00;7.60;99.90
30381;DHT22;17169;50.966;11.038;2024-01-25T06:15:06;7.60;99.90
30381;DHT22;17169;50.966;11.038;2024-01-25T06:18:08;7.60;99.90
30381;DHT22;17169;50.966;11.038;2024-01-25T06:21:10;7.70;99.90
30381;DHT22;17169;50.966;11.038;2024-01-25T06:24:13;7.70;99.90
30381;DHT22;17169;50.966;11.038;2024-01-25T06:27:17;7.70;99.90
30381;DHT22;17169;50.966;11.038;2024-01-25T06:30:19;7.70;99.90
30381;DHT22;17169;50.966;11.038;2024-01-25T06:33:23;7.70;99.90
30381;DHT22;17169;50.966;11.038;2024-01-25T06:36:25;7.70;99.90
30381;DHT22;17169;50.966;11.038;2024-01-25T06:39:28;7.70;99.90
30381;DHT22;17169;50.966;11.038;2024-01-25T06:42:32;7.70;99.90
30381;DHT22;17169;50.966;11.038;2024-01-25T06:45:34;7.70;99.90
30381;DHT22;17169;50.966;11.038;2024-01-25T06:48:37;7.80;99.90
30381;DHT22;17169;50.966;11.038;2024-01-25T06:51:39;7.80;99.90
30381;DHT22;17169;50.966;11.038;2024-01-25T06:54:41;7.80;99.90
30381;DHT22;17169;50.966;11.038;2024-01-25T06:57:45;7.80;99.90
30381;DHT22;17169;50.966;11.038;2024-01-25T07:00:47;7.90;99.90
30381;DHT22;17169;50.966;11.038;2024-01-25T07:03:50;7.80;99.90
30381;DHT22;17169;50.966;11.038;2024-01-25T07:06:52;7.90;99.90
30381;DHT22;17169;50.966;11.038;2024-01-25T07:09:54;7.90;99.90
30381;DHT22;17169;50.966;11.038;2024-01-25T07:12:58;7.90;99.90
30381;DHT22;17169;50.966;11.038;2024-01-25T07:16:01;7.80;99.90
30381;DHT22;17169;50.966;11.038;2024-01-25T07:19:03;7.80;99.90
30381;DHT22;17169;50.966;11.038;2024-01-25T07:22:05;7.80;99.90
30381;DHT22;17169;50.966;11.038;2024-01-25T07:25:09;7.80;99.90
30381;DHT22;17169;50.966;11.038;2024-01-25T07:28:12;7.90;99.90
30381;DHT22;17169;50.966;11.038;2024-01-25T07:31:15;7.90;99.90
30381;DHT22;17169;50.966;11.038;2024-01-25T07:34:17;7.90;99.90
30381;DHT22;17169;50.966;11.038;2024-01-25T07:37:19;7.90;99.90
30381;DHT22;17169;50.966;11.038;2024-01-25T07:40:22;7.90;99.90
30381;DHT22;17169;50.966;11.038;2024-01-25T07:43:26;7.80;99.90
30381;DHT22;17169;50.966;11.038;2024-01-25T07:46:28;7.80;99.90
30381;DHT22;17169;50.966;11.038;2024-01-25T07:49:31;7.90;99.90
30381;DHT22;17169;50.966;11.038;2024-01-25T07:52:33;7.90;99.90
30381;DHT22;17169;50.966;11.038;2024-01-25T07:55:35;7.90;99.90
30381;DHT22;17169;50.966;11.038;2024-01-25T07:58:40;7.90;99.90
30381;DHT22;17169;50.966;11.038;2024-01-25T08:01:42;7.90;99.90
30381;DHT22;17169;50.966;11.038;2024-01-25T08:04:44;7.90;99.90
30381;DHT22;17169;50.966;11.038;2024-01-25T08:07:47;7.90;99.90
30381;DHT22;17169;50.966;11.038;2024-01-25T08:10:50;7.90;99.90
30381;DHT22;17169;50.966;11.038;2024-01-25T08:13:54;7.90;99.90
30381;DHT22;17169;50.966;11.038;2024-01-25T08:16:56;8.00;99.90
30381;DHT22;17169;50.966;11.038;2024-01-25T08:19:59;8.00;99.90
30381;DHT22;17169;50.966;11.038;2024-01-25T08:23:02;8.00;99.90
30381;DHT22;17169;50.966;11.038;2024-01-25T08:26:04;8.10;99.90
30381;DHT22;17169;50.966;11.038;2024-01-25T08:29:11;8.00;99.90
30381;DHT22;17169;50.966;11.038;2024-01-25T08:32:13;8.00;99.90
30381;DHT22;17169;50.966;11.038;2024-01-25T08:35:16;8.00;99.90
30381;DHT22;17169;50.966;11.038;2024-01-25T08:38:18;8.00;99.90
30381;DHT22;17169;50.966;11.038;2024-01-25T08:41:21;8.00;99.90
30381;DHT22;17169;50.966;11.038;2024-01-25T08:44:24;8.00;99.90
30381;DHT22;17169;50.966;11.038;2024-01-25T08:47:27;8.00;99.90
30381;DHT22;17169;50.966;11.038;2024-01-25T08:50:29;8.00;99.90
30381;DHT22;17169;50.966;11.038;2024-01-25T08:53:32;8.00;99.90
30381;DHT22;17169;50.966;11.038;2024-01-25T08:56:34;8.00;99.90
30381;DHT22;17169;50.966;11.038;2024-01-25T08:59:38;8.10;99.90
30381;DHT22;17169;50.966;11.038;2024-01-25T09:02:40;8.10;99.90
30381;DHT22;17169;50.966;11.038;2024-01-25T09:05:43;8.10;99.90
30381;DHT22;17169;50.966;11.038;2024-01-25T09:08:46;8.20;99.90
30381;DHT22;17169;50.966;11.038;2024-01-25T09:11:49;8.30;99.90
30381;DHT22;17169;50.966;11.038;2024-01-25T09:14:53;8.30;99.90
30381;DHT22;17169;50.966;11.038;2024-01-25T09:17:55;8.40;99.90
30381;DHT22;17169;50.966;11.038;2024-01-25T09:20:57;8.50;99.90
30381;DHT22;17169;50.966;11.038;2024-01-25T09:24:00;8.60;99.90
30381;DHT22;17169;50.966;11.038;2024-01-25T09:27:02;8.60;99.90
30381;DHT22;17169;50.966;11.038;2024-01-25T09:30:07;8.60;99.90
30381;DHT22;17169;50.966;11.038;2024-01-25T09:33:09;8.50;99.90
30381;DHT22;17169;50.966;11.038;2024-01-25T09:36:12;8.50;99.90
30381;DHT22;17169;50.966;11.038;2024-01-25T09:39:14;8.40;99.90
30381;DHT22;17169;50.966;11.038;2024-01-25T09:42:17;8.40;99.90
30381;DHT22;17169;50.966;11.038;2024-01-25T09:45:22;8.50;99.90
30381;DHT22;17169;50.966;11.038;2024-01-25T09:48:26;8.50;99.90
30381;DHT22;17169;50.966;11.038;2024-01-25T09:51:31;8.50;99.90
30381;DHT22;17169;50.966;11.038;2024-01-25T09:54:36;8.60;99.90
30381;DHT22;17169;50.966;11.038;2024-01-25T09:57:38;8.50;99.90
30381;DHT22;17169;50.966;11.038;2024-01-25T10:00:44;8.60;99.90
30381;DHT22;17169;50.966;11.038;2024-01-25T10:03:46;8.70;99.90
30381;DHT22;17169;50.966;11.038;2024-01-25T10:06:48;8.70;99.90
30381;DHT22;17169;50.966;11.038;2024-01-25T10:09:51;8.60;99.90
30381;DHT22;17169;50.966;11.038;2024-01-25T10:12:55;8.60;99.90
30381;DHT22;17169;50.966;11.038;2024-01-25T10:15:59;8.60;99.90
30381;DHT22;17169;50.966;11.038;2024-01-25T10:19:04;8.50;99.90
30381;DHT22;17169;50.966;11.038;2024-01-25T10:22:09;8.60;99.90
30381;DHT22;17169;50.966;11.038;2024-01-25T10:25:13;8.60;99.90
30381;DHT22;17169;50.966;11.038;2024-01-25T10:28:16;8.60;99.90
30381;DHT22;17169;50.966;11.038;2024-01-25T10:31:23;8.70;99.90
30381;DHT22;17169;50.966;11.038;2024-01-25T10:34:25;8.70;99.90
30381;DHT22;17169;50.966;11.038;2024-01-25T10:37:28;8.70;99.90
30381;DHT22;17169;50.966;11.038;2024-01-25T10:40:32;8.80;99.90
30381;DHT22;17169;50.966;11.038;2024-01-25T10:43:35;8.80;99.90
30381;DHT22;17169;50.966;11.038;2024-01-25T10:46:40;8.80;99.90
30381;DHT22;17169;50.966;11.038;2024-01-25T10:49:43;8.80;99.90
30381;DHT22;17169;50.966;11.038;2024-01-25T10:52:48;8.90;99.90
30381;DHT22;17169;50.966;11.038;2024-01-25T10:55:50;9.00;99.90
30381;DHT22;17169;50.966;11.038;2024-01-25T10:58:53;9.00;99.90
30381;DHT22;17169;50.966;11.038;2024-01-25T11:01:57;9.00;99.90
30381;DHT22;17169;50.966;11.038;2024-01-25T11:04:59;9.00;99.90
30381;DHT22;17169;50.966;11.038;2024-01-25T11:08:02;9.00;99.90
30381;DHT22;17169;50.966;11.038;2024-01-25T11:11:06;9.00;99.90
30381;DHT22;17169;50.966;11.038;2024-01-25T11:14:11;9.00;99.90
30381;DHT22;17169;50.966;11.038;2024-01-25T11:17:20;9.00;99.90
30381;DHT22;17169;50.966;11.038;2024-01-25T11:20:25;8.90;99.90
30381;DHT22;17169;50.966;11.038;2024-01-25T11:23:31;9.00;99.90
30381;DHT22;17169;50.966;11.038;2024-01-25T11:26:34;8.90;99.90
30381;DHT22;17169;50.966;11.038;2024-01-25T11:29:38;8.90;99.90
30381;DHT22;17169;50.966;11.038;2024-01-25T11:32:42;9.00;99.90
30381;DHT22;17169;50.966;11.038;2024-01-25T11:35:54;9.00;99.90
30381;DHT22;17169;50.966;11.038;2024-01-25T11:38:57;9.00;99.90
30381;DHT22;17169;50.966;11.038;2024-01-25T11:41:59;9.10;99.90
30381;DHT22;17169;50.966;11.038;2024-01-25T11:45:03;9.30;99.90
30381;DHT22;17169;50.966;11.038;2024-01-25T11:48:07;9.30;99.90
30381;DHT22;17169;50.966;11.038;2024-01-25T11:51:10;9.30;99.90
30381;DHT22;17169;50.966;11.038;2024-01-25T11:54:13;9.40;99.90
30381;DHT22;17169;50.966;11.038;2024-01-25T11:57:15;9.40;99.90
30381;DHT22;17169;50.966;11.038;2024-01-25T12:00:18;9.50;99.90
30381;DHT22;17169;50.966;11.038;2024-01-25T12:03:22;9.60;99.90
30381;DHT22;17169;50.966;11.038;2024-01-25T12:06:25;9.60;99.90
30381;DHT22;17169;50.966;11.038;2024-01-25T12:09:27;9.60;99.90
30381;DHT22;17169;50.966;11.038;2024-01-25T12:12:29;9.50;99.90
30381;DHT22;17169;50.966;11.038;2024-01-25T12:15:32;9.40;99.90
30381;DHT22;17169;50.966;11.038;2024-01-25T12:18:37;9.40;99.90
30381;DHT22;17169;50.966;11.038;2024-01-25T12:21:39;9.30;99.90
30381;DHT22;17169;50.966;11.038;2024-01-25T12:24:46;9.30;99.90
30381;DHT22;17169;50.966;11.038;2024-01-25T12:27:49;9.30;99.90
30381;DHT22;17169;50.966;11.038;2024-01-25T12:30:51;9.10;99.90
30381;DHT22;17169;50.966;11.038;2024-01-25T12:33:55;9.10;99.90
30381;DHT22;17169;50.966;11.038;2024-01-25T12:36:58;9.20;99.90
30381;DHT22;17169;50.966;11.038;2024-01-25T12:40:01;9.30;99.90
30381;DHT22;17169;50.966;11.038;2024-01-25T12:43:04;9.30;99.90
30381;DHT22;17169;50.966;11.038;2024-01-25T12:46:06;9.40;99.90
30381;DHT22;17169;50.966;11.038;2024-01-25T12:49:10;9.40;99.90
30381;DHT22;17169;50.966;11.038;2024-01-25T12:52:14;9.40;99.90
30381;DHT22;17169;50.966;11.038;2024-01-25T12:55:17;9.60;99.90
30381;DHT22;17169;50.966;11.038;2024-01-25T12:58:19;9.60;99.90
30381;DHT22;17169;50.966;11.038;2024-01-25T13:01:21;9.70;99.90
30381;DHT22;17169;50.966;11.038;2024-01-25T13:04:25;9.70;99.90
30381;DHT22;17169;50.966;11.038;2024-01-25T13:07:27;9.70;99.90
30381;DHT22;17169;50.966;11.038;2024-01-25T13:10:30;9.80;99.90
30381;DHT22;17169;50.966;11.038;2024-01-25T13:13:32;9.80;99.90
30381;DHT22;17169;50.966;11.038;2024-01-25T13:16:34;9.90;99.90
30381;DHT22;17169;50.966;11.038;2024-01-25T13:19:38;9.90;99.90
30381;DHT22;17169;50.966;11.038;2024-01-25T13:22:41;9.80;99.90
30381;DHT22;17169;50.966;11.038;2024-01-25T13:25:43;9.70;99.90
30381;DHT22;17169;50.966;11.038;2024-01-25T13:28:47;9.70;99.90
30381;DHT22;17169;50.966;11.038;2024-01-25T13:31:49;9.70;99.90
30381;DHT22;17169;50.966;11.038;2024-01-25T13:34:53;9.60;99.90
30381;DHT22;17169;50.966;11.038;2024-01-25T13:37:55;9.60;99.90
30381;DHT22;17169;50.966;11.038;2024-01-25T13:41:01;9.70;99.90
30381;DHT22;17169;50.966;11.038;2024-01-25T13:44:04;9.70;99.90
30381;DHT22;17169;50.966;11.038;2024-01-25T13:47:06;9.70;99.90
30381;DHT22;17169;50.966;11.038;2024-01-25T13:50:10;9.60;99.90
30381;DHT22;17169;50.966;11.038;2024-01-25T13:53:13;9.60;99.90
30381;DHT22;17169;50.966;11.038;2024-01-25T13:56:15;9.60;99.90
30381;DHT22;17169;50.966;11.038;2024-01-25T13:59:18;9.50;99.90
30381;DHT22;17169;50.966;11.038;2024-01-25T14:02:20;9.50;99.90
30381;DHT22;17169;50.966;11.038;2024-01-25T14:05:24;9.40;99.90
30381;DHT22;17169;50.966;11.038;2024-01-25T14:08:26;9.50;99.90
30381;DHT22;17169;50.966;11.038;2024-01-25T14:11:28;9.60;99.90
30381;DHT22;17169;50.966;11.038;2024-01-25T14:14:32;9.60;99.90
30381;DHT22;17169;50.966;11.038;2024-01-25T14:17:34;9.60;99.90
30381;DHT22;17169;50.966;11.038;2024-01-25T14:20:38;9.60;99.90
30381;DHT22;17169;50.966;11.038;2024-01-25T14:23:41;9.60;99.90
30381;DHT22;17169;50.966;11.038;2024-01-25T14:26:44;9.50;99.90
30381;DHT22;17169;50.966;11.038;2024-01-25T14:29:46;9.50;99.90
30381;DHT22;17169;50.966;11.038;2024-01-25T14:32:49;9.50;99.90
30381;DHT22;17169;50.966;11.038;2024-01-25T14:35:53;9.40;99.90
30381;DHT22;17169;50.966;11.038;2024-01-25T14:38:55;9.30;99.90
30381;DHT22;17169;50.966;11.038;2024-01-25T14:41:57;9.30;99.90
30381;DHT22;17169;50.966;11.038;2024-01-25T14:45:00;9.30;99.90
30381;DHT22;17169;50.966;11.038;2024-01-25T14:48:02;9.20;99.90
30381;DHT22;17169;50.966;11.038;2024-01-25T14:51:06;9.20;99.90
30381;DHT22;17169;50.966;11.038;2024-01-25T14:54:09;9.10;99.90
30381;DHT22;17169;50.966;11.038;2024-01-25T14:57:11;9.10;99.90
30381;DHT22;17169;50.966;11.038;2024-01-25T15:00:14;9.00;99.90
30381;DHT22;17169;50.966;11.038;2024-01-25T15:03:20;9.00;99.90
30381;DHT22;17169;50.966;11.038;2024-01-25T15:06:24;9.00;99.90
30381;DHT22;17169;50.966;11.038;2024-01-25T15:09:27;8.90;99.90
30381;DHT22;17169;50.966;11.038;2024-01-25T15:12:29;8.90;99.90
30381;DHT22;17169;50.966;11.038;2024-01-25T15:15:32;8.80;99.90
30381;DHT22;17169;50.966;11.038;2024-01-25T15:18:34;8.70;99.90
30381;DHT22;17169;50.966;11.038;2024-01-25T15:21:38;8.60;99.90
30381;DHT22;17169;50.966;11.038;2024-01-25T15:24:40;8.50;99.90
30381;DHT22;17169;50.966;11.038;2024-01-25T15:27:42;8.40;99.90
30381;DHT22;17169;50.966;11.038;2024-01-25T15:30:45;8.30;99.90
30381;DHT22;17169;50.966;11.038;2024-01-25T15:33:47;8.30;99.90
30381;DHT22;17169;50.966;11.038;2024-01-25T15:36:51;8.20;99.90
30381;DHT22;17169;50.966;11.038;2024-01-25T15:39:53;8.10;99.90
30381;DHT22;17169;50.966;11.038;2024-01-25T15:42:56;8.00;99.90
30381;DHT22;17169;50.966;11.038;2024-01-25T15:45:58;7.90;99.90
30381;DHT22;17169;50.966;11.038;2024-01-25T15:49:00;7.90;99.90
30381;DHT22;17169;50.966;11.038;2024-01-25T15:52:05;7.80;99.90
30381;DHT22;17169;50.966;11.038;2024-01-25T15:55:08;7.70;99.90
30381;DHT22;17169;50.966;11.038;2024-01-25T15:58:10;7.70;99.90
30381;DHT22;17169;50.966;11.038;2024-01-25T16:01:13;7.60;99.90
30381;DHT22;17169;50.966;11.038;2024-01-25T16:04:15;7.50;99.90
30381;DHT22;17169;50.966;11.038;2024-01-25T16:07:19;7.40;99.90
30381;DHT22;17169;50.966;11.038;2024-01-25T16:10:21;7.40;99.90
30381;DHT22;17169;50.966;11.038;2024-01-25T16:13:23;7.40;99.90
30381;DHT22;17169;50.966;11.038;2024-01-25T16:16:26;7.40;99.90
30381;DHT22;17169;50.966;11.038;2024-01-25T16:19:28;7.30;99.90
30381;DHT22;17169;50.966;11.038;2024-01-25T16:22:32;7.30;99.90
30381;DHT22;17169;50.966;11.038;2024-01-25T16:25:35;7.30;99.90
30381;DHT22;17169;50.966;11.038;2024-01-25T16:28:38;7.20;99.90
30381;DHT22;17169;50.966;11.038;2024-01-25T16:31:40;7.20;99.90
30381;DHT22;17169;50.966;11.038;2024-01-25T16:34:42;7.10;99.90
30381;DHT22;17169;50.966;11.038;2024-01-25T16:37:46;7.10;99.90
30381;DHT22;17169;50.966;11.038;2024-01-25T16:40:49;7.00;99.90
30381;DHT22;17169;50.966;11.038;2024-01-25T16:43:51;7.00;99.90
30381;DHT22;17169;50.966;11.038;2024-01-25T16:46:53;7.00;99.90
30381;DHT22;17169;50.966;11.038;2024-01-25T16:49:56;6.90;99.90
30381;DHT22;17169;50.966;11.038;2024-01-25T16:52:59;6.90;99.90
30381;DHT22;17169;50.966;11.038;2024-01-25T16:56:03;6.80;99.90
30381;DHT22;17169;50.966;11.038;2024-01-25T16:59:05;6.80;99.90
30381;DHT22;17169;50.966;11.038;2024-01-25T17:02:08;6.80;99.90
30381;DHT22;17169;50.966;11.038;2024-01-25T17:05:10;6.80;99.90
30381;DHT22;17169;50.966;11.038;2024-01-25T17:08:15;6.80;99.90
30381;DHT22;17169;50.966;11.038;2024-01-25T17:11:18;6.70;99.90
30381;DHT22;17169;50.966;11.038;2024-01-25T17:14:20;6.70;99.90
30381;DHT22;17169;50.966;11.038;2024-01-25T17:17:22;6.60;99.90
30381;DHT22;17169;50.966;11.038;2024-01-25T17:20:26;6.60;99.90
30381;DHT22;17169;50.966;11.038;2024-01-25T17:23:30;6.60;99.90
30381;DHT22;17169;50.966;11.038;2024-01-25T17:26:32;6.50;99.90
30381;DHT22;17169;50.966;11.038;2024-01-25T17:29:35;6.50;99.90
30381;DHT22;17169;50.966;11.038;2024-01-25T17:32:37;6.50;99.90
30381;DHT22;17169;50.966;11.038;2024-01-25T17:35:40;6.40;99.90
30381;DHT22;17169;50.966;11.038;2024-01-25T17:38:44;6.40;99.90
30381;DHT22;17169;50.966;11.038;2024-01-25T17:41:47;6.40;99.90
30381;DHT22;17169;50.966;11.038;2024-01-25T17:44:49;6.30;99.90
30381;DHT22;17169;50.966;11.038;2024-01-25T17:47:51;6.30;99.90
30381;DHT22;17169;50.966;11.038;2024-01-25T17:50:55;6.20;99.90
30381;DHT22;17169;50.966;11.038;2024-01-25T17:53:58;6.20;99.90
30381;DHT22;17169;50.966;11.038;2024-01-25T17:57:01;6.20;99.90
30381;DHT22;17169;50.966;11.038;2024-01-25T18:00:04;6.20;99.90
30381;DHT22;17169;50.966;11.038;2024-01-25T18:03:07;6.30;99.90
30381;DHT22;17169;50.966;11.038;2024-01-25T18:06:09;6.30;99.90
30381;DHT22;17169;50.966;11.038;2024-01-25T18:09:13;6.30;99.90
30381;DHT22;17169;50.966;11.038;2024-01-25T18:12:16;6.30;99.90
30381;DHT22;17169;50.966;11.038;2024-01-25T18:15:18;6.30;99.90
30381;DHT22;17169;50.966;11.038;2024-01-25T18:18:20;6.30;99.90
30381;DHT22;17169;50.966;11.038;2024-01-25T18:21:23;6.30;99.90
30381;DHT22;17169;50.966;11.038;2024-01-25T18:24:27;6.20;99.90
30381;DHT22;17169;50.966;11.038;2024-01-25T18:27:31;6.20;99.90
30381;DHT22;17169;50.966;11.038;2024-01-25T18:30:34;6.20;99.90
30381;DHT22;17169;50.966;11.038;2024-01-25T18:33:36;6.20;99.90
30381;DHT22;17169;50.966;11.038;2024-01-25T18:36:39;6.30;99.90
30381;DHT22;17169;50.966;11.038;2024-01-25T18:39:42;6.30;99.90
30381;DHT22;17169;50.966;11.038;2024-01-25T18:42:45;6.40;99.90
30381;DHT22;17169;50.966;11.038;2024-01-25T18:45:47;6.40;99.90
30381;DHT22;17169;50.966;11.038;2024-01-25T18:48:50;6.40;99.90
30381;DHT22;17169;50.966;11.038;2024-01-25T18:51:52;6.40;99.90
30381;DHT22;17169;50.966;11.038;2024-01-25T18:54:56;6.40;99.90
30381;DHT22;17169;50.966;11.038;2024-01-25T18:57:59;6.50;99.90
30381;DHT22;17169;50.966;11.038;2024-01-25T19:01:02;6.50;99.90
30381;DHT22;17169;50.966;11.038;2024-01-25T19:04:06;6.50;99.90
30381;DHT22;17169;50.966;11.038;2024-01-25T19:07:09;6.50;99.90
30381;DHT22;17169;50.966;11.038;2024-01-25T19:10:13;6.50;99.90
30381;DHT22;17169;50.966;11.038;2024-01-25T19:13:15;6.50;99.90
30381;DHT22;17169;50.966;11.038;2024-01-25T19:16:21;6.50;99.90